Suehiro Maru No.8 — JK5423 — position and weather

sailwx.info

Track history (hours):
 
Tides and Currents Weather Stations Pressure Air Temp Water Temp Dewpoint Dewpoint Depression Visibility Wind Speed Wind Dir Waves Ship Positions

Suehiro Maru No.8

Last reported at 2015-Jul-20 09:18 UTC. Time now 2015-Aug-01 20:15 UTC.
Position N 34°07' E 134°47'.
Warning: this ship's position is 12 days out of date.

Length 88 m; draft 3.4 m.

Type: Cargo ship. MMSI: 431400446.

Date/timePositionNaut miles runAvg speedWind from/ knotsBaromVisibWave heightAir tempDewpointWater temp
2015-Jul-20 09:18N 34°07' E 134°47'18710.0
2015-Jul-19 14:33N 34°31' E 138°31'56 9.4
2015-Jul-19 08:33N 35°00' E 139°29'1010.2
2015-Jul-19 07:34N 35°06' E 139°39'1010.1
2015-Jul-19 06:34N 35°15' E 139°46'1010.1
2015-Jul-19 05:33N 35°25' E 139°44'1111.3
2015-Jul-19 04:34N 35°35' E 139°51'3 0.8
2015-Jul-19 00:33N 35°37' E 139°49'0 0.0
2015-Jul-18 23:34N 35°37' E 139°49'4 3.9
2015-Jul-18 22:33N 35°35' E 139°52'0 0.1
2015-Jul-18 21:33N 35°35' E 139°52'0 0.0
2015-Jul-18 20:33N 35°35' E 139°52'0 0.0
2015-Jul-18 19:34N 35°35' E 139°52'2 2.1
2015-Jul-18 18:34N 35°33' E 139°53'1212.3
2015-Jul-18 17:34N 35°22' E 139°45'1211.6
2015-Jul-18 16:34N 35°10' E 139°47'1312.6
2015-Jul-18 15:33N 34°60' E 139°38'  
2015-Jul-12 08:30N 34°60' E 139°27'1010.2
2015-Jul-12 07:34N 35°05' E 139°36'1111.2
2015-Jul-12 06:33N 35°13' E 139°46'1111.4
2015-Jul-12 05:33N 35°24' E 139°43'1111.2
2015-Jul-12 04:33N 35°33' E 139°51'5 4.9
2015-Jul-12 03:33N 35°37' E 139°49'0 0.0
2015-Jul-12 02:33N 35°37' E 139°49'0 0.0
2015-Jul-12 01:34N 35°37' E 139°49'0 0.0
2015-Jul-12 00:33N 35°37' E 139°49'0 0.0
2015-Jul-11 23:33N 35°37' E 139°49'0 0.0
2015-Jul-11 22:33N 35°37' E 139°49'1 1.1
2015-Jul-11 21:33N 35°37' E 139°50'3 2.6
2015-Jul-11 20:33N 35°36' E 139°52'0 0.0
2015-Jul-11 19:34N 35°36' E 139°52'0 0.1
2015-Jul-11 18:33N 35°36' E 139°52'0 0.1
2015-Jul-11 17:34N 35°36' E 139°52'0 0.0
2015-Jul-11 16:33N 35°36' E 139°52'0 0.0
2015-Jul-11 15:33N 35°36' E 139°52'0 0.0
2015-Jul-11 14:34N 35°36' E 139°52'0 0.0
2015-Jul-11 13:33N 35°36' E 139°52'0 0.0
2015-Jul-11 12:33N 35°36' E 139°52'0 0.0
2015-Jul-11 11:33N 35°36' E 139°52'0 0.0
2015-Jul-11 10:34N 35°36' E 139°52'0 0.0
2015-Jul-11 09:33N 35°36' E 139°52'0 0.0
2015-Jul-11 08:34N 35°36' E 139°52'0 0.0
2015-Jul-11 07:33N 35°36' E 139°52'0 0.0
2015-Jul-11 06:33N 35°36' E 139°52'0 0.0
2015-Jul-11 05:33N 35°36' E 139°52'0 0.2
2015-Jul-11 04:34N 35°35' E 139°52'1211.8
2015-Jul-11 03:34N 35°24' E 139°51'2 2.1
2015-Jul-11 02:33N 35°22' E 139°53'0 0.0
2015-Jul-11 01:33N 35°22' E 139°53'0 0.0
2015-Jul-11 00:34N 35°22' E 139°53'0 0.0
2015-Jul-10 23:33N 35°22' E 139°53'0 0.0
2015-Jul-10 22:33N 35°22' E 139°53'0 0.0
2015-Jul-10 21:33N 35°22' E 139°53'0 0.0
2015-Jul-10 20:33N 35°22' E 139°53'0 0.0
2015-Jul-10 19:33N 35°22' E 139°53'0 0.0
2015-Jul-10 18:33N 35°22' E 139°53'0 0.0
2015-Jul-10 17:33N 35°22' E 139°53'0 0.0
2015-Jul-10 16:33N 35°22' E 139°53'0 0.0
2015-Jul-10 15:33N 35°22' E 139°53'0 0.0
2015-Jul-10 14:33N 35°22' E 139°53'0 0.0
2015-Jul-10 13:33N 35°22' E 139°53'0 0.0
2015-Jul-10 12:33N 35°22' E 139°53'0 0.0
2015-Jul-10 11:34N 35°22' E 139°53'0 0.3
2015-Jul-10 10:33N 35°22' E 139°52'3 2.5
2015-Jul-10 09:33N 35°24' E 139°50'  
Track history (hours):
 
Tides and Currents Weather Stations Pressure Air Temp Water Temp Dewpoint Dewpoint Depression Visibility Wind Speed Wind Dir Waves Ship Positions

Suehiro Maru No.8

Last reported at 2015-Jul-20 09:18 UTC. Time now 2015-Aug-01 20:15 UTC.
Position N 34°07' E 134°47'.
Warning: this ship's position is 12 days out of date.

Length 88 m; draft 3.4 m.

Type: Cargo ship. MMSI: 431400446.

Date/timePositionNaut miles runAvg speedWind from/ knotsBaromVisibWave heightAir tempDewpointWater temp
2015-Jul-20 09:18N 34°07' E 134°47'18710.0
2015-Jul-19 14:33N 34°31' E 138°31'56 9.4
2015-Jul-19 08:33N 35°00' E 139°29'1010.2
2015-Jul-19 07:34N 35°06' E 139°39'1010.1
2015-Jul-19 06:34N 35°15' E 139°46'1010.1
2015-Jul-19 05:33N 35°25' E 139°44'1111.3
2015-Jul-19 04:34N 35°35' E 139°51'3 0.8
2015-Jul-19 00:33N 35°37' E 139°49'0 0.0
2015-Jul-18 23:34N 35°37' E 139°49'4 3.9
2015-Jul-18 22:33N 35°35' E 139°52'0 0.1
2015-Jul-18 21:33N 35°35' E 139°52'0 0.0
2015-Jul-18 20:33N 35°35' E 139°52'0 0.0
2015-Jul-18 19:34N 35°35' E 139°52'2 2.1
2015-Jul-18 18:34N 35°33' E 139°53'1212.3
2015-Jul-18 17:34N 35°22' E 139°45'1211.6
2015-Jul-18 16:34N 35°10' E 139°47'1312.6
2015-Jul-18 15:33N 34°60' E 139°38'  
2015-Jul-12 08:30N 34°60' E 139°27'1010.2
2015-Jul-12 07:34N 35°05' E 139°36'1111.2
2015-Jul-12 06:33N 35°13' E 139°46'1111.4
2015-Jul-12 05:33N 35°24' E 139°43'1111.2
2015-Jul-12 04:33N 35°33' E 139°51'5 4.9
2015-Jul-12 03:33N 35°37' E 139°49'0 0.0
2015-Jul-12 02:33N 35°37' E 139°49'0 0.0
2015-Jul-12 01:34N 35°37' E 139°49'0 0.0
2015-Jul-12 00:33N 35°37' E 139°49'0 0.0
2015-Jul-11 23:33N 35°37' E 139°49'0 0.0
2015-Jul-11 22:33N 35°37' E 139°49'1 1.1
2015-Jul-11 21:33N 35°37' E 139°50'3 2.6
2015-Jul-11 20:33N 35°36' E 139°52'0 0.0
2015-Jul-11 19:34N 35°36' E 139°52'0 0.1
2015-Jul-11 18:33N 35°36' E 139°52'0 0.1
2015-Jul-11 17:34N 35°36' E 139°52'0 0.0
2015-Jul-11 16:33N 35°36' E 139°52'0 0.0
2015-Jul-11 15:33N 35°36' E 139°52'0 0.0
2015-Jul-11 14:34N 35°36' E 139°52'0 0.0
2015-Jul-11 13:33N 35°36' E 139°52'0 0.0
2015-Jul-11 12:33N 35°36' E 139°52'0 0.0
2015-Jul-11 11:33N 35°36' E 139°52'0 0.0
2015-Jul-11 10:34N 35°36' E 139°52'0 0.0
2015-Jul-11 09:33N 35°36' E 139°52'0 0.0
2015-Jul-11 08:34N 35°36' E 139°52'0 0.0
2015-Jul-11 07:33N 35°36' E 139°52'0 0.0
2015-Jul-11 06:33N 35°36' E 139°52'0 0.0
2015-Jul-11 05:33N 35°36' E 139°52'0 0.2
2015-Jul-11 04:34N 35°35' E 139°52'1211.8
2015-Jul-11 03:34N 35°24' E 139°51'2 2.1
2015-Jul-11 02:33N 35°22' E 139°53'0 0.0
2015-Jul-11 01:33N 35°22' E 139°53'0 0.0
2015-Jul-11 00:34N 35°22' E 139°53'0 0.0
2015-Jul-10 23:33N 35°22' E 139°53'0 0.0
2015-Jul-10 22:33N 35°22' E 139°53'0 0.0
2015-Jul-10 21:33N 35°22' E 139°53'0 0.0
2015-Jul-10 20:33N 35°22' E 139°53'0 0.0
2015-Jul-10 19:33N 35°22' E 139°53'0 0.0
2015-Jul-10 18:33N 35°22' E 139°53'0 0.0
2015-Jul-10 17:33N 35°22' E 139°53'0 0.0
2015-Jul-10 16:33N 35°22' E 139°53'0 0.0
2015-Jul-10 15:33N 35°22' E 139°53'0 0.0
2015-Jul-10 14:33N 35°22' E 139°53'0 0.0
2015-Jul-10 13:33N 35°22' E 139°53'0 0.0
2015-Jul-10 12:33N 35°22' E 139°53'0 0.0
2015-Jul-10 11:34N 35°22' E 139°53'0 0.3
2015-Jul-10 10:33N 35°22' E 139°52'3 2.5
2015-Jul-10 09:33N 35°24' E 139°50'  

Dump ship's entire track history